Racecast

Worcester Academy

Difficulty:i +5.4% (5000m, the usual distance here) · 155 results · 125 athletes

All 5000m
Rating scale ?

Distances raced here

DistanceDifficultyiResults FirstLast
5000m +5.4% 155 2024-10-05 2025-09-27

Best speed ratings all distances

Boys

#AthleteRatingi TimeDistSchoolDate
1 Jeffrey (Jeff) Zeng 118.2 18:11.2 5000m Wilbraham & Monson (MA) 2024-10-05
2 David Zhou 117.8 18:15.5 5000m Wilbraham & Monson (MA) 2024-10-05
3 Charles O'Brien 116.9 18:28.9 5000m Marianapolis Prep (CT) 2025-09-27
4 Cavan Gardner 114.9 18:42.8 5000m Worcester Academy (MA) 2024-10-05
5 Bruno Alvarez 114.0 18:51.9 5000m Wilbraham & Monson (MA) 2024-10-05
6 Grayson Southwick-Hall 113.7 18:54.3 5000m Wilbraham & Monson (MA) 2024-10-05
7 Jack Oates 112.3 19:14.2 5000m Dexter Southfield (CT) 2025-09-27
8 John Song 110.9 19:22.8 5000m Cheshire Academy (CT) 2024-10-05
9 John Crocker 110.5 19:27.9 5000m Wilbraham & Monson (MA) 2024-10-05
10 Kayden Chhoun 109.1 19:42.9 5000m Wilbraham & Monson (MA) 2024-10-05
11 Mark Tobias 108.9 19:44.2 5000m Wilbraham & Monson (MA) 2024-10-05
12 Collin O'Brien 108.4 19:56.4 5000m Marianapolis Prep (CT) 2025-09-27
13 Harrison Martel 106.6 20:09.7 5000m Worcester Academy (MA) 2024-10-05
14 Miles Yijie 106.1 20:16 5000m Wilbraham & Monson (MA) 2024-10-05
15 Ben Abbott 104.5 20:36 5000m Cushing Academy (MA) 2024-10-19
16 Chris Wilson 103.9 20:43 5000m Worcester Academy (MA) 2024-10-19
17 Quinn Desimone 102.5 21:05.5 5000m Dexter Southfield (CT) 2025-09-27
18 Peter Piao 102.4 21:00.3 5000m Worcester Academy (MA) 2024-10-05
19 Keegan Porter 102.0 21:11.5 5000m Marianapolis Prep (CT) 2025-09-27
20 J.R. Wallis 101.8 21:07.1 5000m Hamden Hall Country Day (CT) 2024-10-05
21 Daniel Park 101.8 21:07.4 5000m Hamden Hall Country Day (CT) 2024-10-05
22 Ethan Raisman 101.5 21:11.1 5000m Worcester Academy (MA) 2024-10-05
23 Luca Giannelli 100.9 21:18.6 5000m Cheshire Academy (CT) 2024-10-05
24 Cole Christman 100.8 21:19.9 5000m Hamden Hall Country Day (CT) 2024-10-05
25 Taijun Piao 99.7 21:36 5000m Worcester Academy (MA) 2024-10-19
26 Colin Healey 99.5 21:43 5000m Marianapolis Prep (CT) 2025-09-27
27 Andrew Yang 98.8 21:46 5000m Hamden Hall Country Day (CT) 2024-10-05
28 Nozomu Yoshitake 98.6 21:48.9 5000m Wilbraham & Monson (MA) 2024-10-05
29 Kevin Zhou 98.5 21:51 5000m Cushing Academy (MA) 2024-10-19
30 Aiden Gafford 98.4 21:58.2 5000m Worcester Academy (MA) 2025-09-27
31 Quince Hamilton 97.4 22:04.2 5000m Cheshire Academy (CT) 2024-10-05
32 Victor Ma 96.9 22:11 5000m Hamden Hall Country Day (CT) 2024-10-05
33 Jack Cavagnaro 96.9 22:18.7 5000m Dexter Southfield (CT) 2025-09-27
34 Jaidin Nieves 96.3 22:22 5000m Worcester Academy (MA) 2024-10-19
35 Aaron Prygoda 95.8 22:26.3 5000m Hamden Hall Country Day (CT) 2024-10-05
36 Greyson Vasseur 95.8 22:27.2 5000m Hamden Hall Country Day (CT) 2024-10-05
37 Ryder Morton 94.5 22:52.3 5000m Dexter Southfield (CT) 2025-09-27
38 Billy McEwen 94.4 22:53.3 5000m Dexter Southfield (CT) 2025-09-27
39 Tucker Peckham 92.3 23:25.1 5000m Marianapolis Prep (CT) 2025-09-27
40 Ishaan Pandey 91.3 23:32.6 5000m Cheshire Academy (CT) 2024-10-05
41 Eddie Peng 91.3 23:33.2 5000m Hamden Hall Country Day (CT) 2024-10-05
42 Caleb Gingras 90.4 23:54.3 5000m Marianapolis Prep (CT) 2025-09-27
43 Tri Tran 89.2 24:08 5000m Cushing Academy (MA) 2024-10-19
44 Nolan Place 89.2 24:14.2 5000m Dexter Southfield (CT) 2025-09-27
45 Matyas Cepek 88.2 24:23.5 5000m Wilbraham & Monson (MA) 2024-10-05
46 Vladyslav Nikulin 88.1 24:23.9 5000m Wilbraham & Monson (MA) 2024-10-05
47 Robby Gray 88.1 24:31.7 5000m Worcester Academy (MA) 2025-09-27
48 Joshua Kim 88.1 24:32 5000m Worcester Academy (MA) 2025-09-27
49 Jackson Perry 87.4 24:43.5 5000m Worcester Academy (MA) 2025-09-27
50 Grady Johnson 86.7 24:48.8 5000m Hamden Hall Country Day (CT) 2024-10-05
51 Tom Zhou 86.2 24:59 5000m Cushing Academy (MA) 2024-10-19
52 John Abbott 85.2 25:16 5000m Cushing Academy (MA) 2024-10-19
53 William Eisenstock 84.7 25:22.8 5000m Worcester Academy (MA) 2024-10-05
54 Nick Marchewka 84.2 25:39.3 5000m Worcester Academy (MA) 2025-09-27
55 Matias Candelo-Diaz 82.8 25:59 5000m Cheshire Academy (CT) 2024-10-05
56 Hugo Zhang 80.6 26:43 5000m Cushing Academy (MA) 2024-10-19
57 Chris Harper 79.9 26:54.6 5000m Cheshire Academy (CT) 2024-10-05
58 Owen Irish 79.4 27:05.6 5000m Worcester Academy (MA) 2024-10-05
59 Zhuofan (George) Zhang 79.3 27:07.4 5000m Hamden Hall Country Day (CT) 2024-10-05
60 Shawn Yi 77.1 28:01 5000m Worcester Academy (MA) 2025-09-27

View all →

Girls

#AthleteRatingi TimeDistSchoolDate
1 Ellie Smith 117.7 22:05.5 5000m Marianapolis Prep (CT) 2025-09-27
2 Ella Budzinski 110.5 23:28.1 5000m Worcester Academy (MA) 2024-10-05
3 Lillian Evans 109.4 23:42.6 5000m Hamden Hall Country Day (CT) 2024-10-05
4 Michelle Kraus 106.7 24:21 5000m Cushing Academy (MA) 2024-10-19
5 Becky Liu 106.1 24:27.2 5000m Hamden Hall Country Day (CT) 2024-10-05
6 Charlotte Young 102.9 25:12.5 5000m Wilbraham & Monson (MA) 2024-10-05
7 Agape Bagamery-Szalay 100.5 25:49.3 5000m Worcester Academy (MA) 2024-10-05
8 Lily Meier 98.0 26:27.3 5000m Wilbraham & Monson (MA) 2024-10-05
9 Sarah O'Rourke 97.0 26:48.4 5000m Dexter Southfield (CT) 2025-09-27
10 Emma Landry 96.0 27:00.5 5000m Wilbraham & Monson (MA) 2024-10-05
11 Jaela Hanley 95.2 27:19.1 5000m Marianapolis Prep (CT) 2025-09-27
12 Felicity Liao 95.0 27:21 5000m Cushing Academy (MA) 2024-10-19
13 Samantha Ha 93.5 27:44.5 5000m Worcester Academy (MA) 2024-10-05
14 Yuan Xiao 93.4 27:46.2 5000m Wilbraham & Monson (MA) 2024-10-05
15 Yitong Li 93.0 27:56.7 5000m Marianapolis Prep (CT) 2025-09-27
16 Tina Fang 91.9 28:16 5000m Worcester Academy (MA) 2024-10-19
17 Chandler Fitts 91.7 28:20.7 5000m Dexter Southfield (CT) 2025-09-27
18 Brianna Penterson 91.6 28:19.1 5000m Worcester Academy (MA) 2024-10-05
19 Penelope Dwyer 90.6 28:36.9 5000m Hamden Hall Country Day (CT) 2024-10-05
20 Annalise Peters 90.4 28:41.8 5000m Worcester Academy (MA) 2024-10-05
21 Natalia Gillaspie 89.6 28:57 5000m Worcester Academy (MA) 2024-10-05
22 Lauren Lee 88.3 32:04.4 5000m Wilbraham & Monson (MA) 2024-10-05
23 Aika Ueno 87.3 29:41.8 5000m Worcester Academy (MA) 2024-10-05
24 Phuong Nguyen 87.3 29:42.9 5000m Wilbraham & Monson (MA) 2024-10-05
25 Margo Weske 86.5 29:58.7 5000m Cheshire Academy (CT) 2024-10-05
26 Wang Linlang 84.9 30:32.4 5000m Hamden Hall Country Day (CT) 2024-10-05
27 Ashley Li 84.3 30:46.7 5000m Wilbraham & Monson (MA) 2024-10-05
28 Gabby Bailey 83.4 31:05.2 5000m Wilbraham & Monson (MA) 2024-10-05
29 Constanza Valenzuela Lastra 83.1 31:13.2 5000m Wilbraham & Monson (MA) 2024-10-05
30 Ella Cahalane 81.7 31:48.9 5000m Dexter Southfield (CT) 2025-09-27
31 Lexa Lashway 81.6 31:52.6 5000m Dexter Southfield (CT) 2025-09-27
32 Florida Sur Pen 81.3 31:53 5000m Worcester Academy (MA) 2024-10-05
33 Ava Perri 80.9 32:07.7 5000m Dexter Southfield (CT) 2025-09-27
34 Daphne Upson 79.5 32:38.8 5000m Cheshire Academy (CT) 2024-10-05
35 Lingxi (Abella) Cheng 79.4 32:39.1 5000m Hamden Hall Country Day (CT) 2024-10-05
36 Monica Ehrenfels 78.6 33:00.3 5000m Cheshire Academy (CT) 2024-10-05
37 Melanie Rosenthal 78.5 33:03.2 5000m Worcester Academy (MA) 2024-10-05
38 Barbara Ramirez-Moreno 78.0 33:14.7 5000m Hamden Hall Country Day (CT) 2024-10-05
39 Shelby Machowski 77.9 33:18.2 5000m Wilbraham & Monson (MA) 2024-10-05
40 Han Le 73.8 35:08.6 5000m Wilbraham & Monson (MA) 2024-10-05
41 Mabel Lam Tran 73.7 35:11.1 5000m Worcester Academy (MA) 2024-10-05
42 Annabelle Stanzler 73.0 35:36.7 5000m Dexter Southfield (CT) 2025-09-27
43 Jamie Park 72.2 35:58 5000m Cushing Academy (MA) 2024-10-19
44 alisa Sokova 70.4 36:55 5000m Cushing Academy (MA) 2024-10-19
45 Daniela Mijares 70.1 37:03 5000m Cushing Academy (MA) 2024-10-19
46 Laila Louissaint 68.9 37:44.4 5000m Dexter Southfield (CT) 2025-09-27
47 Audrey Vipond 68.8 41:09.7 5000m Wilbraham & Monson (MA) 2024-10-05
48 Cadence Penebre 68.3 38:05.3 5000m Dexter Southfield (CT) 2025-09-27
49 Marcy Nguyen 64.5 40:11.6 5000m Worcester Academy (MA) 2024-10-05
50 Ruby Tran 59.5 43:33.3 5000m Worcester Academy (MA) 2024-10-05
51 Selia Nguyen 56.6 45:47.4 5000m Worcester Academy (MA) 2024-10-05
52 Lauren Adler 51.3 50:35.5 5000m Cheshire Academy (CT) 2024-10-05

View all →

Best team performances by rating top-5 average rating, one race, all distances

Boys

#SchoolTop-5 avg DistMeetDate
1 Wilbraham & Monson (MA) 114.8 5000m Worcester Academy Invitational 2024-10-05
2 Worcester Academy (MA) 105.8 5000m Worcester Academy Invitational 2024-10-05
3 Marianapolis Prep (CT) 103.8 5000m Worcester Academy Tri-Meet 2025-09-27
4 Dexter Southfield (CT) 100.1 5000m Worcester Academy Tri-Meet 2025-09-27
5 Hamden Hall Country Day (CT) 100.0 5000m Worcester Academy Invitational 2024-10-05
6 Cheshire Academy (CT) 96.7 5000m Worcester Academy Invitational 2024-10-05
7 Cushing Academy (MA) 92.7 5000m Worcester Academy vs. Cushing Academy XC 2024-10-19

View all →

Girls

#SchoolTop-5 avg DistMeetDate
1 Worcester Academy (MA) 97.3 5000m Worcester Academy Invitational 2024-10-05
2 Wilbraham & Monson (MA) 95.7 5000m Worcester Academy Invitational 2024-10-05
3 Hamden Hall Country Day (CT) 94.1 5000m Worcester Academy Invitational 2024-10-05
4 Dexter Southfield (CT) 86.6 5000m Worcester Academy Tri-Meet 2025-09-27
5 Cushing Academy (MA) 82.9 5000m Worcester Academy vs. Cushing Academy XC 2024-10-19

View all →

Meets held here all distances

MeetLast heldDistanceResults
Worcester Academy Tri-Meet 2025-09-27 5000 41
Worcester Academy vs. Cushing Academy XC 2024-10-19 5000 39
Worcester Academy Invitational 2024-10-05 5000 75

View all →